createdAt,value
2022-11-09T00:02:11.583Z,82.66
2022-11-09T00:04:40.405Z,82.58
2022-11-09T00:07:09.403Z,82.66
2022-11-09T00:09:39.830Z,82.62
2022-11-09T00:12:08.980Z,82.58
2022-11-09T00:14:38.187Z,82.66
2022-11-09T00:17:07.132Z,82.56
2022-11-09T00:19:36.281Z,82.55
2022-11-09T00:22:05.108Z,82.65
2022-11-09T00:24:34.095Z,82.70
2022-11-09T00:27:03.073Z,82.63
2022-11-09T00:29:31.926Z,82.68
2022-11-09T00:32:00.726Z,82.58
2022-11-09T00:34:32.582Z,82.59
2022-11-09T00:37:01.401Z,82.36
2022-11-09T00:39:30.110Z,82.73
2022-11-09T00:42:00.353Z,82.73
2022-11-09T00:44:31.811Z,82.60
2022-11-09T00:47:00.500Z,82.72
2022-11-09T00:49:29.502Z,82.68
2022-11-09T00:52:02.759Z,82.58
2022-11-09T00:54:34.002Z,82.46
2022-11-09T00:57:03.914Z,82.46
2022-11-09T00:59:32.940Z,82.53
2022-11-09T01:02:01.656Z,82.58
2022-11-09T01:04:30.632Z,82.54
2022-11-09T01:07:00.684Z,82.43
2022-11-09T01:09:29.574Z,82.54
2022-11-09T01:11:58.327Z,82.44
2022-11-09T01:14:27.073Z,82.39
2022-11-09T01:16:56.492Z,82.47
2022-11-09T01:19:27.719Z,82.66
2022-11-09T01:21:56.658Z,82.64
2022-11-09T01:24:25.506Z,82.50
2022-11-09T01:26:56.350Z,82.57
2022-11-09T01:29:25.127Z,82.58
2022-11-09T01:31:56.068Z,82.58
2022-11-09T01:34:29.787Z,82.58
2022-11-09T01:36:58.739Z,82.65
2022-11-09T01:39:27.515Z,82.81
2022-11-09T01:41:56.225Z,82.83
2022-11-09T01:44:28.175Z,82.74
2022-11-09T01:47:00.503Z,82.70
2022-11-09T01:49:40.391Z,82.71
2022-11-09T01:52:16.821Z,82.78
2022-11-09T01:54:48.007Z,82.76
2022-11-09T01:57:21.819Z,82.65
2022-11-09T01:59:55.353Z,82.72
2022-11-09T02:02:25.710Z,82.64
2022-11-09T02:05:00.951Z,82.78
2022-11-09T02:07:30.330Z,82.89
2022-11-09T02:10:03.997Z,82.81
2022-11-09T02:12:36.307Z,82.89
2022-11-09T02:15:09.221Z,82.75
2022-11-09T02:17:41.752Z,82.72
2022-11-09T02:20:13.247Z,82.87
2022-11-09T02:22:42.620Z,82.96
2022-11-09T02:25:12.661Z,82.82
2022-11-09T02:27:43.072Z,82.72
2022-11-09T02:30:15.117Z,82.66
2022-11-09T02:32:47.452Z,82.55
2022-11-09T02:35:16.359Z,82.66
2022-11-09T02:37:59.400Z,82.53
2022-11-09T02:40:32.629Z,82.62
2022-11-09T02:43:02.609Z,82.76
2022-11-09T02:45:31.280Z,82.78
2022-11-09T02:48:00.139Z,82.82
2022-11-09T02:50:29.384Z,82.73
2022-11-09T02:52:58.604Z,82.74
2022-11-09T02:55:27.816Z,82.63
2022-11-09T02:57:56.887Z,82.78
2022-11-09T03:00:25.959Z,82.72
2022-11-09T03:02:56.376Z,82.73
2022-11-09T03:05:25.542Z,82.78
2022-11-09T03:07:54.515Z,82.68
2022-11-09T03:10:24.110Z,82.73
2022-11-09T03:12:55.490Z,82.83
2022-11-09T03:15:24.344Z,82.86
2022-11-09T03:17:54.322Z,82.82
2022-11-09T03:20:25.716Z,82.97
2022-11-09T03:22:58.728Z,82.90
2022-11-09T03:25:28.425Z,82.99
2022-11-09T03:28:01.420Z,83.10
2022-11-09T03:30:30.582Z,82.87
2022-11-09T03:33:00.819Z,82.90
2022-11-09T03:35:30.017Z,82.97
2022-11-09T03:37:58.909Z,82.95
2022-11-09T03:40:28.482Z,83.02
2022-11-09T03:42:58.408Z,83.16
2022-11-09T03:45:27.857Z,83.45
2022-11-09T03:50:57.268Z,83.59
2022-11-09T03:53:26.019Z,83.61
2022-11-09T03:55:56.728Z,83.83
2022-11-09T03:58:25.475Z,83.84
2022-11-09T04:00:54.211Z,83.66
2022-11-09T04:03:23.192Z,83.79
2022-11-09T04:05:54.800Z,83.74
2022-11-09T04:08:24.126Z,83.67
2022-11-09T04:10:53.020Z,83.67
2022-11-09T04:13:22.062Z,83.53
2022-11-09T04:15:51.062Z,83.56
2022-11-09T04:18:24.792Z,83.38
2022-11-09T04:20:56.293Z,83.35
2022-11-09T04:23:25.041Z,83.28
2022-11-09T04:25:54.106Z,83.07
2022-11-09T04:28:22.775Z,82.89
2022-11-09T04:30:51.651Z,83.12
2022-11-09T04:33:22.214Z,83.05
2022-11-09T04:35:51.219Z,83.06
2022-11-09T04:38:21.923Z,83.17
2022-11-09T04:40:50.792Z,83.11
2022-11-09T04:43:19.804Z,83.13
2022-11-09T04:45:49.779Z,83.12
2022-11-09T04:48:18.412Z,83.07
2022-11-09T04:50:47.215Z,83.07
2022-11-09T04:53:17.039Z,82.98
2022-11-09T04:55:45.816Z,82.92
2022-11-09T04:58:14.731Z,82.80
2022-11-09T05:00:43.470Z,82.72
2022-11-09T05:03:12.413Z,82.68
2022-11-09T05:05:48.014Z,82.70
2022-11-09T05:08:17.190Z,82.62
2022-11-09T05:10:46.099Z,82.79
2022-11-09T05:13:18.810Z,82.71
2022-11-09T05:15:47.717Z,82.54
2022-11-09T05:18:16.361Z,82.72
2022-11-09T05:20:45.042Z,82.57
2022-11-09T05:23:31.841Z,82.64
2022-11-09T05:26:00.604Z,82.56
2022-11-09T05:28:29.260Z,82.68
2022-11-09T05:30:58.054Z,82.76
2022-11-09T05:33:30.493Z,82.77
2022-11-09T05:35:59.514Z,82.71
2022-11-09T05:38:30.498Z,82.71
2022-11-09T05:40:59.198Z,82.56
2022-11-09T05:43:33.362Z,82.47
2022-11-09T05:46:06.349Z,82.50
2022-11-09T05:48:35.968Z,82.69
2022-11-09T05:53:49.808Z,82.60
2022-11-09T05:56:18.810Z,83.06
2022-11-09T05:59:09.432Z,83.01
2022-11-09T06:01:38.305Z,82.99
2022-11-09T06:04:07.058Z,83.12
2022-11-09T06:06:35.799Z,83.06
2022-11-09T06:09:07.516Z,83.03
2022-11-09T06:11:38.815Z,82.98
2022-11-09T06:14:08.137Z,82.89
2022-11-09T06:16:37.489Z,82.88
2022-11-09T06:19:06.534Z,82.86
2022-11-09T06:21:35.580Z,82.67
2022-11-09T06:24:05.181Z,82.57
2022-11-09T06:26:34.162Z,82.52
2022-11-09T06:29:03.428Z,82.38
2022-11-09T06:31:32.227Z,82.23
2022-11-09T06:34:02.831Z,82.40
2022-11-09T06:36:31.535Z,82.42
2022-11-09T06:39:00.639Z,82.62
2022-11-09T06:41:30.524Z,82.34
2022-11-09T06:43:59.347Z,82.38
2022-11-09T06:46:28.049Z,82.69
2022-11-09T06:48:59.302Z,82.70
2022-11-09T06:51:28.022Z,82.72
2022-11-09T06:53:56.996Z,82.64
2022-11-09T06:56:25.680Z,82.75
2022-11-09T06:58:57.221Z,82.70
2022-11-09T07:01:28.994Z,82.72
2022-11-09T07:04:00.600Z,82.57
2022-11-09T07:06:29.653Z,82.73
2022-11-09T07:08:58.659Z,82.70
2022-11-09T07:11:27.577Z,82.76
2022-11-09T07:13:57.643Z,82.57
2022-11-09T07:16:26.488Z,82.76
2022-11-09T07:18:55.379Z,82.77
2022-11-09T07:21:24.273Z,82.77
2022-11-09T07:23:55.542Z,82.79
2022-11-09T07:26:24.223Z,82.74
2022-11-09T07:28:57.258Z,82.82
2022-11-09T07:31:28.633Z,82.83
2022-11-09T07:34:00.676Z,82.77
2022-11-09T07:36:29.563Z,82.79
2022-11-09T07:38:58.242Z,83.02
2022-11-09T07:41:31.945Z,82.89
2022-11-09T07:44:03.927Z,82.78
2022-11-09T07:46:34.924Z,82.97
2022-11-09T07:49:06.355Z,83.02
2022-11-09T07:51:36.362Z,83.15
2022-11-09T07:54:05.703Z,83.25
2022-11-09T07:56:34.470Z,83.64
2022-11-09T07:59:04.043Z,83.52
2022-11-09T08:01:32.854Z,83.65
2022-11-09T08:04:02.099Z,83.48
2022-11-09T08:06:31.645Z,83.65
2022-11-09T08:09:00.595Z,83.88
2022-11-09T08:11:32.243Z,83.55
2022-11-09T08:14:01.068Z,83.63
2022-11-09T08:16:34.872Z,83.62
2022-11-09T08:19:08.361Z,83.69
2022-11-09T08:21:37.736Z,83.53
2022-11-09T08:24:08.020Z,83.73
2022-11-09T08:26:36.741Z,83.51
2022-11-09T08:29:05.893Z,83.50
2022-11-09T08:31:34.773Z,83.42
2022-11-09T08:34:03.814Z,83.17
2022-11-09T08:36:33.280Z,82.99
2022-11-09T08:39:02.472Z,82.93
2022-11-09T08:41:35.165Z,83.03
2022-11-09T08:44:04.740Z,82.98
2022-11-09T08:46:40.808Z,82.82
2022-11-09T08:49:10.344Z,82.85
2022-11-09T08:51:42.253Z,82.79
2022-11-09T08:54:12.920Z,82.53
2022-11-09T08:56:41.847Z,82.48
2022-11-09T08:59:11.173Z,82.41
2022-11-09T09:01:39.926Z,82.01
2022-11-09T09:04:08.750Z,81.97
2022-11-09T09:06:37.710Z,81.97
2022-11-09T09:09:06.488Z,81.86
2022-11-09T09:11:35.459Z,81.74
2022-11-09T09:14:04.627Z,81.76
2022-11-09T09:16:33.675Z,81.76
2022-11-09T09:19:02.380Z,81.44
2022-11-09T09:21:31.253Z,81.40
2022-11-09T09:24:00.571Z,81.59
2022-11-09T09:26:29.244Z,81.37
2022-11-09T09:29:06.887Z,80.95
2022-11-09T09:31:35.777Z,81.01
2022-11-09T09:34:04.507Z,80.85
2022-11-09T09:36:34.909Z,81.16
2022-11-09T09:39:06.643Z,81.02
2022-11-09T09:41:39.277Z,80.99
2022-11-09T09:44:20.349Z,80.81
2022-11-09T09:47:04.983Z,80.60
2022-11-09T09:49:40.003Z,80.53
2022-11-09T09:52:20.122Z,80.41
2022-11-09T09:54:57.946Z,80.30
2022-11-09T09:57:29.222Z,80.21
2022-11-09T10:00:01.641Z,80.30
2022-11-09T10:02:46.532Z,80.15
2022-11-09T10:05:20.520Z,79.98
2022-11-09T10:07:57.128Z,79.99
2022-11-09T10:10:45.734Z,79.81
2022-11-09T10:13:37.061Z,79.91
2022-11-09T10:16:14.588Z,79.83
2022-11-09T10:19:00.347Z,79.76
2022-11-09T10:21:37.432Z,79.30
2022-11-09T10:24:23.309Z,79.31
2022-11-09T10:26:54.650Z,79.26
2022-11-09T10:29:25.504Z,79.29
2022-11-09T10:31:57.439Z,79.16
2022-11-09T10:34:29.465Z,79.02
2022-11-09T10:37:10.518Z,78.61
2022-11-09T10:39:47.150Z,78.50
2022-11-09T10:42:34.677Z,78.62
2022-11-09T10:45:29.641Z,78.74
2022-11-09T10:48:34.856Z,78.63
2022-11-09T10:51:40.936Z,78.58
2022-11-09T10:54:31.809Z,78.63
2022-11-09T10:57:22.473Z,78.60
2022-11-09T11:00:17.521Z,78.59
2022-11-09T11:03:15.997Z,78.20
2022-11-09T11:06:06.126Z,78.39
2022-11-09T11:09:13.897Z,78.09
2022-11-09T11:12:15.361Z,78.06
2022-11-09T11:15:03.582Z,77.90
2022-11-09T11:17:59.957Z,78.03
2022-11-09T11:20:47.772Z,77.71
2022-11-09T11:23:36.394Z,77.90
2022-11-09T11:26:37.617Z,78.01
2022-11-09T11:29:38.678Z,77.76
2022-11-09T11:32:26.579Z,77.48
2022-11-09T11:35:18.798Z,77.47
2022-11-09T11:38:22.387Z,77.32
2022-11-09T11:41:35.950Z,77.34
2022-11-09T11:44:39.570Z,77.53
2022-11-09T11:47:36.168Z,77.78
2022-11-09T11:50:32.120Z,77.94
2022-11-09T11:53:33.369Z,77.47
2022-11-09T11:56:26.681Z,77.27
2022-11-09T11:59:35.856Z,77.15
2022-11-09T12:02:55.490Z,77.31
2022-11-09T12:06:12.086Z,77.40
2022-11-09T12:09:31.518Z,77.70
2022-11-09T12:12:29.559Z,77.55
2022-11-09T12:15:29.258Z,77.76
2022-11-09T12:18:31.590Z,77.79
2022-11-09T12:21:26.847Z,77.59
2022-11-09T12:24:23.854Z,77.33
2022-11-09T12:27:32.009Z,77.54
2022-11-09T12:30:23.661Z,77.48
2022-11-09T12:33:17.171Z,77.40
2022-11-09T12:36:11.886Z,77.32
2022-11-09T12:39:06.096Z,77.33
2022-11-09T12:41:58.478Z,77.12
2022-11-09T12:44:57.750Z,77.23
2022-11-09T12:47:45.764Z,77.21
2022-11-09T12:50:34.656Z,77.16
2022-11-09T12:53:28.705Z,77.33
2022-11-09T12:56:22.077Z,77.47
2022-11-09T12:59:33.446Z,77.61
2022-11-09T13:02:31.255Z,77.43
2022-11-09T13:05:33.107Z,77.44
2022-11-09T13:08:28.504Z,77.65
2022-11-09T13:11:35.796Z,77.64
2022-11-09T13:18:03.913Z,77.85
2022-11-09T13:20:56.852Z,78.02
2022-11-09T13:24:04.478Z,77.93
2022-11-09T13:27:28.410Z,77.83
2022-11-09T13:30:49.065Z,77.86
2022-11-09T13:33:38.628Z,78.05
2022-11-09T13:36:26.263Z,78.17
2022-11-09T13:39:32.689Z,78.17
2022-11-09T13:42:28.407Z,78.31
2022-11-09T13:45:27.276Z,78.18
2022-11-09T13:48:29.139Z,78.25
2022-11-09T13:51:19.726Z,78.16
2022-11-09T13:54:30.453Z,78.17
2022-11-09T13:57:18.269Z,78.31
2022-11-09T14:00:14.386Z,78.39
2022-11-09T14:03:06.110Z,78.26
2022-11-09T14:05:55.809Z,78.40
2022-11-09T14:08:44.007Z,78.29
2022-11-09T14:12:00.217Z,78.12
2022-11-09T14:15:11.741Z,78.30
2022-11-09T14:18:13.109Z,78.22
2022-11-09T14:21:22.633Z,78.43
2022-11-09T14:24:17.804Z,78.50
2022-11-09T14:27:17.041Z,78.49
2022-11-09T14:30:18.876Z,78.39
2022-11-09T14:33:21.681Z,78.27
2022-11-09T14:36:12.897Z,78.70
2022-11-09T14:39:03.961Z,78.69
2022-11-09T14:41:55.339Z,78.97
2022-11-09T14:44:45.737Z,79.12
2022-11-09T14:47:38.883Z,79.19
2022-11-09T14:50:30.585Z,79.28
2022-11-09T14:53:21.831Z,79.28
2022-11-09T14:56:12.507Z,79.37
2022-11-09T14:59:04.098Z,79.52
2022-11-09T15:02:01.313Z,79.77
2022-11-09T15:04:56.264Z,79.77
2022-11-09T15:07:49.097Z,79.99
2022-11-09T15:10:37.972Z,80.03
2022-11-09T15:13:33.903Z,80.08
2022-11-09T15:16:24.019Z,80.08
2022-11-09T15:19:24.066Z,80.19
2022-11-09T15:22:43.314Z,80.22
2022-11-09T15:25:34.567Z,80.24
2022-11-09T15:28:25.382Z,80.36
2022-11-09T15:31:16.004Z,80.36
2022-11-09T15:34:24.003Z,80.47
2022-11-09T15:37:24.369Z,80.66
2022-11-09T15:40:21.918Z,80.69
2022-11-09T15:43:09.901Z,80.94
2022-11-09T15:45:59.610Z,81.06
2022-11-09T15:48:47.359Z,81.13
2022-11-09T15:51:37.186Z,81.26
2022-11-09T15:54:25.049Z,81.38
2022-11-09T15:57:18.657Z,81.45
2022-11-09T16:00:19.534Z,81.61
2022-11-09T16:03:09.900Z,81.72
2022-11-09T16:05:58.861Z,81.61
2022-11-09T16:08:48.940Z,81.65
2022-11-09T16:11:36.683Z,81.75
2022-11-09T16:14:30.441Z,81.63
2022-11-09T16:17:22.315Z,81.56
2022-11-09T16:20:11.937Z,81.46
2022-11-09T16:22:59.659Z,81.39
2022-11-09T16:25:49.330Z,81.37
2022-11-09T16:28:39.605Z,81.51
2022-11-09T16:31:50.329Z,81.45
2022-11-09T16:34:36.562Z,81.53
2022-11-09T16:37:27.713Z,81.58
2022-11-09T16:40:17.991Z,81.44
2022-11-09T16:43:05.577Z,81.59
2022-11-09T16:45:53.203Z,81.69
2022-11-09T16:48:42.091Z,81.60
2022-11-09T16:51:30.508Z,81.72
2022-11-09T16:54:18.165Z,81.73
2022-11-09T16:57:06.779Z,81.96
2022-11-09T17:02:56.719Z,81.96
2022-11-09T17:05:44.649Z,81.86
2022-11-09T17:08:32.729Z,81.91
2022-11-09T17:11:20.751Z,81.92
2022-11-09T17:14:10.054Z,81.66
2022-11-09T17:16:58.159Z,81.66
2022-11-09T17:19:46.210Z,81.69
2022-11-09T17:22:34.141Z,81.60
2022-11-09T17:25:22.110Z,81.70
2022-11-09T17:28:10.181Z,81.62
2022-11-09T17:30:58.455Z,81.71
2022-11-09T17:33:48.898Z,81.72
2022-11-09T17:37:02.331Z,81.58
2022-11-09T17:39:45.603Z,81.56
2022-11-09T17:42:35.121Z,81.79
2022-11-09T17:45:23.037Z,81.70
2022-11-09T17:48:11.484Z,81.66
2022-11-09T17:51:01.440Z,81.52
2022-11-09T17:53:49.664Z,81.42
2022-11-09T17:56:37.942Z,81.56
2022-11-09T17:59:29.673Z,81.54
2022-11-09T18:02:18.143Z,81.38
2022-11-09T18:05:08.019Z,81.38
2022-11-09T18:07:55.588Z,81.53
2022-11-09T18:10:49.612Z,81.57
2022-11-09T18:13:38.454Z,81.60
2022-11-09T18:16:27.737Z,81.53
2022-11-09T18:19:15.744Z,81.83
2022-11-09T18:22:04.904Z,81.82
2022-11-09T18:24:54.796Z,81.88
2022-11-09T18:27:42.297Z,81.93
2022-11-09T18:30:31.368Z,81.92
2022-11-09T18:33:20.629Z,81.79
2022-11-09T18:36:11.792Z,81.67
2022-11-09T18:39:02.810Z,81.67
2022-11-09T18:41:51.685Z,81.56
2022-11-09T18:44:40.035Z,81.53
2022-11-09T18:47:28.358Z,81.52
2022-11-09T18:50:17.515Z,81.43
2022-11-09T18:53:05.290Z,81.46
2022-11-09T18:56:02.276Z,81.31
2022-11-09T18:58:59.355Z,81.29
2022-11-09T19:01:47.478Z,81.27
2022-11-09T19:04:35.488Z,81.26
2022-11-09T19:07:22.941Z,81.22
2022-11-09T19:10:10.827Z,81.24
2022-11-09T19:12:59.978Z,81.21
2022-11-09T19:15:50.006Z,81.27
2022-11-09T19:18:42.216Z,81.09
2022-11-09T19:21:40.191Z,81.17
2022-11-09T19:24:29.685Z,81.11
2022-11-09T19:27:18.053Z,81.20
2022-11-09T19:30:09.915Z,81.18
2022-11-09T19:32:59.650Z,81.19
2022-11-09T19:36:23.355Z,81.11
2022-11-09T19:39:01.210Z,81.07
2022-11-09T19:41:49.287Z,81.28
2022-11-09T19:44:36.688Z,81.41
2022-11-09T19:47:24.443Z,81.34
2022-11-09T19:50:12.688Z,81.57
2022-11-09T19:53:00.781Z,81.51
2022-11-09T19:55:49.877Z,81.62
2022-11-09T19:58:37.978Z,81.75
2022-11-09T20:01:26.344Z,81.73
2022-11-09T20:04:14.643Z,81.81
2022-11-09T20:07:24.834Z,81.81
2022-11-09T20:10:13.596Z,81.80
2022-11-09T20:13:02.295Z,81.89
2022-11-09T20:15:51.754Z,81.92
2022-11-09T20:18:39.761Z,81.83
2022-11-09T20:21:27.636Z,81.94
2022-11-09T20:24:16.248Z,81.89
2022-11-09T20:27:03.644Z,81.90
2022-11-09T20:29:51.077Z,81.89
2022-11-09T20:32:38.343Z,81.95
2022-11-09T20:35:26.117Z,81.99
2022-11-09T20:38:13.469Z,81.95
2022-11-09T20:41:04.008Z,81.97
2022-11-09T20:43:51.823Z,82.15
2022-11-09T20:46:39.328Z,82.04
2022-11-09T20:49:26.497Z,81.97
2022-11-09T20:52:14.418Z,82.10
2022-11-09T20:55:01.865Z,82.07
2022-11-09T20:57:49.314Z,82.03
2022-11-09T21:00:37.088Z,82.01
2022-11-09T21:03:28.523Z,82.04
2022-11-09T21:06:16.267Z,81.97
2022-11-09T21:09:05.590Z,81.99
2022-11-09T21:12:11.265Z,81.99
2022-11-09T21:14:58.495Z,81.86
2022-11-09T21:17:47.389Z,81.85
2022-11-09T21:20:35.412Z,81.88
2022-11-09T21:23:41.294Z,81.88
2022-11-09T21:26:48.652Z,81.98
2022-11-09T21:30:00.718Z,82.03
2022-11-09T21:32:53.525Z,82.13
2022-11-09T21:35:41.230Z,82.13
2022-11-09T21:38:36.770Z,82.21
2022-11-09T21:41:45.300Z,82.15
2022-11-09T21:44:34.186Z,82.17
2022-11-09T21:47:26.291Z,82.31
2022-11-09T21:50:13.758Z,82.30
2022-11-09T21:53:01.283Z,82.40
2022-11-09T21:55:48.551Z,82.28
2022-11-09T21:58:36.644Z,82.27
2022-11-09T22:01:24.952Z,82.15
2022-11-09T22:04:13.165Z,82.22
2022-11-09T22:07:01.026Z,82.11
2022-11-09T22:10:09.507Z,82.12
2022-11-09T22:13:19.058Z,82.06
2022-11-09T22:16:08.864Z,82.05
2022-11-09T22:19:15.353Z,82.21
2022-11-09T22:22:02.693Z,82.21
2022-11-09T22:24:50.064Z,82.12
2022-11-09T22:27:37.741Z,82.16
2022-11-09T22:30:25.176Z,82.09
2022-11-09T22:33:13.863Z,82.19
2022-11-09T22:36:03.374Z,82.23
2022-11-09T22:38:50.873Z,82.24
2022-11-09T22:41:38.581Z,81.99
2022-11-09T22:44:26.144Z,81.99
2022-11-09T22:47:13.736Z,81.99
2022-11-09T22:50:01.070Z,81.87
2022-11-09T22:52:53.344Z,81.77
2022-11-09T22:55:41.653Z,81.80
2022-11-09T22:58:30.998Z,81.68
2022-11-09T23:01:20.590Z,81.85
2022-11-09T23:04:09.756Z,81.93
2022-11-09T23:06:57.244Z,81.88
2022-11-09T23:09:47.266Z,81.99
2022-11-09T23:12:35.121Z,81.92
2022-11-09T23:15:22.840Z,81.90
2022-11-09T23:18:32.240Z,81.77
2022-11-09T23:21:20.738Z,81.77
2022-11-09T23:24:29.564Z,82.04
2022-11-09T23:27:19.749Z,81.97
2022-11-09T23:30:08.677Z,81.95
2022-11-09T23:32:56.074Z,81.97
2022-11-09T23:35:43.928Z,81.86
2022-11-09T23:38:35.810Z,81.98
2022-11-09T23:41:23.479Z,82.13
2022-11-09T23:44:10.941Z,82.04
2022-11-09T23:46:58.688Z,82.00
2022-11-09T23:49:46.126Z,81.92
2022-11-09T23:52:34.239Z,82.16
2022-11-09T23:55:22.331Z,82.15
2022-11-09T23:58:12.467Z,82.04
